sensor_id;sensor_type;location;lat;lon;timestamp;P1;durP1;ratioP1;P2;durP2;ratioP2
64520;SDS011;50896;46.714;17.322;2023-04-25T00:02:07;1.63;;;1.00;;
64520;SDS011;50896;46.714;17.322;2023-04-25T00:04:35;1.00;;;0.93;;
64520;SDS011;50896;46.714;17.322;2023-04-25T00:07:05;1.85;;;1.25;;
64520;SDS011;50896;46.714;17.322;2023-04-25T00:09:32;1.58;;;1.10;;
64520;SDS011;50896;46.714;17.322;2023-04-25T00:11:59;3.45;;;1.23;;
64520;SDS011;50896;46.714;17.322;2023-04-25T00:14:28;2.53;;;1.52;;
64520;SDS011;50896;46.714;17.322;2023-04-25T00:16:55;7.53;;;3.40;;
64520;SDS011;50896;46.714;17.322;2023-04-25T00:19:22;9.82;;;3.97;;
64520;SDS011;50896;46.714;17.322;2023-04-25T00:21:49;9.68;;;3.95;;
64520;SDS011;50896;46.714;17.322;2023-04-25T00:24:16;9.05;;;3.83;;
64520;SDS011;50896;46.714;17.322;2023-04-25T00:26:43;9.80;;;4.00;;
64520;SDS011;50896;46.714;17.322;2023-04-25T00:29:10;8.55;;;4.20;;
64520;SDS011;50896;46.714;17.322;2023-04-25T00:31:37;5.57;;;3.03;;
64520;SDS011;50896;46.714;17.322;2023-04-25T00:34:04;4.53;;;2.78;;
64520;SDS011;50896;46.714;17.322;2023-04-25T00:36:34;3.40;;;1.83;;
64520;SDS011;50896;46.714;17.322;2023-04-25T00:39:01;5.13;;;2.05;;
64520;SDS011;50896;46.714;17.322;2023-04-25T00:41:29;5.82;;;2.08;;
64520;SDS011;50896;46.714;17.322;2023-04-25T00:43:56;2.83;;;1.55;;
64520;SDS011;50896;46.714;17.322;2023-04-25T00:46:24;3.20;;;1.40;;
64520;SDS011;50896;46.714;17.322;2023-04-25T00:48:51;2.78;;;1.45;;
64520;SDS011;50896;46.714;17.322;2023-04-25T00:51:19;3.50;;;1.67;;
64520;SDS011;50896;46.714;17.322;2023-04-25T00:53:48;3.42;;;1.70;;
64520;SDS011;50896;46.714;17.322;2023-04-25T00:56:16;5.97;;;1.52;;
64520;SDS011;50896;46.714;17.322;2023-04-25T00:58:43;1.67;;;1.50;;
64520;SDS011;50896;46.714;17.322;2023-04-25T01:01:11;2.15;;;1.20;;
64520;SDS011;50896;46.714;17.322;2023-04-25T01:03:39;2.28;;;1.30;;
64520;SDS011;50896;46.714;17.322;2023-04-25T01:06:10;1.80;;;1.35;;
64520;SDS011;50896;46.714;17.322;2023-04-25T01:08:37;3.40;;;1.38;;
64520;SDS011;50896;46.714;17.322;2023-04-25T01:11:05;2.00;;;1.23;;
64520;SDS011;50896;46.714;17.322;2023-04-25T01:13:33;4.00;;;1.40;;
64520;SDS011;50896;46.714;17.322;2023-04-25T01:16:01;2.05;;;1.40;;
64520;SDS011;50896;46.714;17.322;2023-04-25T01:18:29;1.88;;;1.33;;
64520;SDS011;50896;46.714;17.322;2023-04-25T01:20:56;1.58;;;1.27;;
64520;SDS011;50896;46.714;17.322;2023-04-25T01:23:33;5.93;;;1.63;;
64520;SDS011;50896;46.714;17.322;2023-04-25T01:26:01;1.83;;;1.40;;
64520;SDS011;50896;46.714;17.322;2023-04-25T01:28:28;2.88;;;1.30;;
64520;SDS011;50896;46.714;17.322;2023-04-25T01:30:56;1.42;;;1.33;;
64520;SDS011;50896;46.714;17.322;2023-04-25T01:33:23;2.03;;;1.40;;
64520;SDS011;50896;46.714;17.322;2023-04-25T01:35:51;3.10;;;1.17;;
64520;SDS011;50896;46.714;17.322;2023-04-25T01:38:19;2.42;;;1.40;;
64520;SDS011;50896;46.714;17.322;2023-04-25T01:40:46;1.77;;;1.30;;
64520;SDS011;50896;46.714;17.322;2023-04-25T01:43:18;2.75;;;1.30;;
64520;SDS011;50896;46.714;17.322;2023-04-25T01:45:45;2.67;;;1.20;;
64520;SDS011;50896;46.714;17.322;2023-04-25T01:48:12;1.52;;;1.38;;
64520;SDS011;50896;46.714;17.322;2023-04-25T01:53:10;1.40;;;1.30;;
64520;SDS011;50896;46.714;17.322;2023-04-25T01:55:41;3.00;;;1.52;;
64520;SDS011;50896;46.714;17.322;2023-04-25T01:58:11;3.72;;;1.80;;
64520;SDS011;50896;46.714;17.322;2023-04-25T02:01:14;3.30;;;1.80;;
64520;SDS011;50896;46.714;17.322;2023-04-25T02:03:48;2.00;;;1.50;;
64520;SDS011;50896;46.714;17.322;2023-04-25T02:06:35;3.05;;;2.13;;
64520;SDS011;50896;46.714;17.322;2023-04-25T02:09:02;2.40;;;1.52;;
64520;SDS011;50896;46.714;17.322;2023-04-25T02:11:29;4.35;;;1.40;;
64520;SDS011;50896;46.714;17.322;2023-04-25T02:14:19;5.97;;;1.40;;
64520;SDS011;50896;46.714;17.322;2023-04-25T02:16:53;3.08;;;1.30;;
64520;SDS011;50896;46.714;17.322;2023-04-25T02:19:21;1.83;;;1.40;;
64520;SDS011;50896;46.714;17.322;2023-04-25T02:21:48;2.65;;;1.45;;
64520;SDS011;50896;46.714;17.322;2023-04-25T02:24:15;4.07;;;1.65;;
64520;SDS011;50896;46.714;17.322;2023-04-25T02:26:42;2.63;;;1.40;;
64520;SDS011;50896;46.714;17.322;2023-04-25T02:29:09;3.83;;;1.38;;
64520;SDS011;50896;46.714;17.322;2023-04-25T02:31:36;2.47;;;1.30;;
64520;SDS011;50896;46.714;17.322;2023-04-25T02:34:03;1.60;;;1.35;;
64520;SDS011;50896;46.714;17.322;2023-04-25T02:36:34;1.75;;;1.15;;
64520;SDS011;50896;46.714;17.322;2023-04-25T02:39:01;2.47;;;1.50;;
64520;SDS011;50896;46.714;17.322;2023-04-25T02:41:29;2.03;;;1.70;;
64520;SDS011;50896;46.714;17.322;2023-04-25T02:43:56;2.58;;;1.60;;
64520;SDS011;50896;46.714;17.322;2023-04-25T02:46:23;2.10;;;1.30;;
64520;SDS011;50896;46.714;17.322;2023-04-25T02:49:05;2.20;;;1.25;;
64520;SDS011;50896;46.714;17.322;2023-04-25T02:51:33;1.92;;;1.38;;
64520;SDS011;50896;46.714;17.322;2023-04-25T02:54:00;2.45;;;1.35;;
64520;SDS011;50896;46.714;17.322;2023-04-25T02:56:27;3.60;;;1.20;;
64520;SDS011;50896;46.714;17.322;2023-04-25T02:58:55;2.92;;;1.30;;
64520;SDS011;50896;46.714;17.322;2023-04-25T03:01:22;1.63;;;1.30;;
64520;SDS011;50896;46.714;17.322;2023-04-25T03:03:48;1.70;;;1.20;;
64520;SDS011;50896;46.714;17.322;2023-04-25T03:06:16;1.70;;;1.30;;
64520;SDS011;50896;46.714;17.322;2023-04-25T03:08:42;1.23;;;1.13;;
64520;SDS011;50896;46.714;17.322;2023-04-25T03:11:09;3.42;;;1.40;;
64520;SDS011;50896;46.714;17.322;2023-04-25T03:13:37;1.63;;;1.10;;
64520;SDS011;50896;46.714;17.322;2023-04-25T03:16:04;1.33;;;1.20;;
64520;SDS011;50896;46.714;17.322;2023-04-25T03:18:31;1.23;;;1.08;;
64520;SDS011;50896;46.714;17.322;2023-04-25T03:20:58;2.13;;;1.10;;
64520;SDS011;50896;46.714;17.322;2023-04-25T03:23:25;1.65;;;1.35;;
64520;SDS011;50896;46.714;17.322;2023-04-25T03:25:52;1.85;;;1.17;;
64520;SDS011;50896;46.714;17.322;2023-04-25T03:28:19;1.42;;;1.05;;
64520;SDS011;50896;46.714;17.322;2023-04-25T03:30:46;3.08;;;1.08;;
64520;SDS011;50896;46.714;17.322;2023-04-25T03:33:13;2.55;;;1.20;;
64520;SDS011;50896;46.714;17.322;2023-04-25T03:35:40;4.18;;;0.90;;
64520;SDS011;50896;46.714;17.322;2023-04-25T03:38:09;1.33;;;1.00;;
64520;SDS011;50896;46.714;17.322;2023-04-25T03:40:38;1.83;;;1.00;;
64520;SDS011;50896;46.714;17.322;2023-04-25T03:43:19;3.88;;;1.20;;
64520;SDS011;50896;46.714;17.322;2023-04-25T03:45:52;1.33;;;0.90;;
64520;SDS011;50896;46.714;17.322;2023-04-25T03:48:21;1.30;;;1.20;;
64520;SDS011;50896;46.714;17.322;2023-04-25T03:50:48;2.03;;;1.00;;
64520;SDS011;50896;46.714;17.322;2023-04-25T03:53:15;2.25;;;1.00;;
64520;SDS011;50896;46.714;17.322;2023-04-25T03:56:17;1.92;;;1.10;;
64520;SDS011;50896;46.714;17.322;2023-04-25T03:58:46;3.08;;;1.40;;
64520;SDS011;50896;46.714;17.322;2023-04-25T04:01:15;2.53;;;1.30;;
64520;SDS011;50896;46.714;17.322;2023-04-25T04:03:42;1.52;;;1.20;;
64520;SDS011;50896;46.714;17.322;2023-04-25T04:06:09;2.30;;;1.20;;
64520;SDS011;50896;46.714;17.322;2023-04-25T04:08:42;3.35;;;1.02;;
64520;SDS011;50896;46.714;17.322;2023-04-25T04:11:10;1.45;;;1.20;;
64520;SDS011;50896;46.714;17.322;2023-04-25T04:13:37;1.58;;;1.10;;
64520;SDS011;50896;46.714;17.322;2023-04-25T04:16:05;1.52;;;1.13;;
64520;SDS011;50896;46.714;17.322;2023-04-25T04:18:33;2.10;;;1.02;;
64520;SDS011;50896;46.714;17.322;2023-04-25T04:21:00;3.72;;;1.23;;
64520;SDS011;50896;46.714;17.322;2023-04-25T04:23:30;2.60;;;1.38;;
64520;SDS011;50896;46.714;17.322;2023-04-25T04:25:58;1.00;;;0.90;;
64520;SDS011;50896;46.714;17.322;2023-04-25T04:28:28;2.38;;;1.20;;
64520;SDS011;50896;46.714;17.322;2023-04-25T04:31:12;1.80;;;1.20;;
64520;SDS011;50896;46.714;17.322;2023-04-25T04:33:39;2.40;;;1.10;;
64520;SDS011;50896;46.714;17.322;2023-04-25T04:36:07;1.85;;;1.20;;
64520;SDS011;50896;46.714;17.322;2023-04-25T04:38:34;1.25;;;1.10;;
64520;SDS011;50896;46.714;17.322;2023-04-25T04:41:02;1.95;;;0.90;;
64520;SDS011;50896;46.714;17.322;2023-04-25T04:43:49;1.73;;;1.17;;
64520;SDS011;50896;46.714;17.322;2023-04-25T04:46:55;3.22;;;1.20;;
64520;SDS011;50896;46.714;17.322;2023-04-25T04:49:29;1.60;;;1.05;;
64520;SDS011;50896;46.714;17.322;2023-04-25T04:52:09;1.15;;;0.98;;
64520;SDS011;50896;46.714;17.322;2023-04-25T04:54:50;3.30;;;1.10;;
64520;SDS011;50896;46.714;17.322;2023-04-25T04:57:36;1.52;;;1.10;;
64520;SDS011;50896;46.714;17.322;2023-04-25T05:00:38;2.72;;;1.33;;
64520;SDS011;50896;46.714;17.322;2023-04-25T05:03:09;1.83;;;1.20;;
64520;SDS011;50896;46.714;17.322;2023-04-25T05:05:58;1.77;;;1.23;;
64520;SDS011;50896;46.714;17.322;2023-04-25T05:08:33;1.48;;;1.17;;
64520;SDS011;50896;46.714;17.322;2023-04-25T05:11:09;1.95;;;1.17;;
64520;SDS011;50896;46.714;17.322;2023-04-25T05:13:54;2.28;;;1.30;;
64520;SDS011;50896;46.714;17.322;2023-04-25T05:16:40;1.30;;;1.00;;
64520;SDS011;50896;46.714;17.322;2023-04-25T05:19:33;0.93;;;0.93;;
64520;SDS011;50896;46.714;17.322;2023-04-25T05:22:24;2.42;;;1.05;;
64520;SDS011;50896;46.714;17.322;2023-04-25T05:25:13;2.65;;;1.33;;
64520;SDS011;50896;46.714;17.322;2023-04-25T05:27:46;1.48;;;1.13;;
64520;SDS011;50896;46.714;17.322;2023-04-25T05:30:29;1.63;;;1.30;;
64520;SDS011;50896;46.714;17.322;2023-04-25T05:33:06;4.53;;;1.35;;
64520;SDS011;50896;46.714;17.322;2023-04-25T05:35:33;2.88;;;1.23;;
64520;SDS011;50896;46.714;17.322;2023-04-25T05:38:00;3.10;;;1.20;;
64520;SDS011;50896;46.714;17.322;2023-04-25T05:40:45;2.33;;;1.25;;
64520;SDS011;50896;46.714;17.322;2023-04-25T05:43:31;2.70;;;1.10;;
64520;SDS011;50896;46.714;17.322;2023-04-25T05:46:09;2.05;;;1.50;;
64520;SDS011;50896;46.714;17.322;2023-04-25T05:48:51;2.10;;;1.48;;
64520;SDS011;50896;46.714;17.322;2023-04-25T05:51:34;2.53;;;1.30;;
64520;SDS011;50896;46.714;17.322;2023-04-25T05:54:11;2.53;;;1.52;;
64520;SDS011;50896;46.714;17.322;2023-04-25T05:56:38;1.73;;;1.20;;
64520;SDS011;50896;46.714;17.322;2023-04-25T05:59:05;1.88;;;1.20;;
64520;SDS011;50896;46.714;17.322;2023-04-25T06:01:32;1.77;;;1.38;;
64520;SDS011;50896;46.714;17.322;2023-04-25T06:03:59;2.17;;;1.00;;
64520;SDS011;50896;46.714;17.322;2023-04-25T06:06:26;2.85;;;1.27;;
64520;SDS011;50896;46.714;17.322;2023-04-25T06:08:54;1.63;;;1.10;;
64520;SDS011;50896;46.714;17.322;2023-04-25T06:11:22;1.48;;;1.38;;
64520;SDS011;50896;46.714;17.322;2023-04-25T06:13:49;2.67;;;1.10;;
64520;SDS011;50896;46.714;17.322;2023-04-25T06:16:16;3.78;;;2.05;;
64520;SDS011;50896;46.714;17.322;2023-04-25T06:18:43;2.80;;;1.20;;
64520;SDS011;50896;46.714;17.322;2023-04-25T06:21:10;2.67;;;1.42;;
64520;SDS011;50896;46.714;17.322;2023-04-25T06:23:45;2.15;;;1.27;;
64520;SDS011;50896;46.714;17.322;2023-04-25T06:26:18;2.58;;;1.20;;
64520;SDS011;50896;46.714;17.322;2023-04-25T06:28:46;4.10;;;1.23;;
64520;SDS011;50896;46.714;17.322;2023-04-25T06:31:14;2.85;;;1.30;;
64520;SDS011;50896;46.714;17.322;2023-04-25T06:33:42;2.78;;;1.20;;
64520;SDS011;50896;46.714;17.322;2023-04-25T06:36:09;2.60;;;1.42;;
64520;SDS011;50896;46.714;17.322;2023-04-25T06:38:37;3.95;;;1.15;;
64520;SDS011;50896;46.714;17.322;2023-04-25T06:41:04;4.15;;;1.50;;
64520;SDS011;50896;46.714;17.322;2023-04-25T06:46:23;1.60;;;1.45;;
64520;SDS011;50896;46.714;17.322;2023-04-25T06:48:49;5.65;;;1.40;;
64520;SDS011;50896;46.714;17.322;2023-04-25T06:51:18;1.90;;;1.30;;
64520;SDS011;50896;46.714;17.322;2023-04-25T06:53:47;2.17;;;1.17;;
64520;SDS011;50896;46.714;17.322;2023-04-25T06:56:24;2.83;;;1.40;;
64520;SDS011;50896;46.714;17.322;2023-04-25T06:59:05;1.30;;;1.20;;
64520;SDS011;50896;46.714;17.322;2023-04-25T07:01:35;5.13;;;1.48;;
64520;SDS011;50896;46.714;17.322;2023-04-25T07:04:05;2.63;;;1.35;;
64520;SDS011;50896;46.714;17.322;2023-04-25T07:06:37;1.23;;;1.13;;
64520;SDS011;50896;46.714;17.322;2023-04-25T07:09:09;2.60;;;1.33;;
64520;SDS011;50896;46.714;17.322;2023-04-25T07:11:37;3.38;;;1.45;;
64520;SDS011;50896;46.714;17.322;2023-04-25T07:14:03;3.65;;;1.63;;
64520;SDS011;50896;46.714;17.322;2023-04-25T07:16:30;2.78;;;1.30;;
64520;SDS011;50896;46.714;17.322;2023-04-25T07:18:58;3.17;;;1.30;;
64520;SDS011;50896;46.714;17.322;2023-04-25T07:21:26;2.17;;;1.30;;
64520;SDS011;50896;46.714;17.322;2023-04-25T07:23:53;5.80;;;1.55;;
64520;SDS011;50896;46.714;17.322;2023-04-25T07:26:25;2.25;;;1.17;;
64520;SDS011;50896;46.714;17.322;2023-04-25T07:29:11;1.83;;;1.48;;
64520;SDS011;50896;46.714;17.322;2023-04-25T07:31:38;4.50;;;1.40;;
64520;SDS011;50896;46.714;17.322;2023-04-25T07:34:05;1.70;;;1.13;;
64520;SDS011;50896;46.714;17.322;2023-04-25T07:36:33;3.28;;;1.17;;
64520;SDS011;50896;46.714;17.322;2023-04-25T07:39:00;4.53;;;1.50;;
64520;SDS011;50896;46.714;17.322;2023-04-25T07:41:27;3.30;;;1.63;;
64520;SDS011;50896;46.714;17.322;2023-04-25T07:43:54;3.00;;;1.50;;
64520;SDS011;50896;46.714;17.322;2023-04-25T07:46:21;4.18;;;1.83;;
64520;SDS011;50896;46.714;17.322;2023-04-25T07:48:48;2.30;;;1.67;;
64520;SDS011;50896;46.714;17.322;2023-04-25T07:51:15;3.92;;;1.58;;
64520;SDS011;50896;46.714;17.322;2023-04-25T07:53:42;2.20;;;1.20;;
64520;SDS011;50896;46.714;17.322;2023-04-25T07:56:11;3.20;;;1.42;;
64520;SDS011;50896;46.714;17.322;2023-04-25T07:58:41;6.15;;;1.67;;
64520;SDS011;50896;46.714;17.322;2023-04-25T08:01:11;2.40;;;1.45;;
64520;SDS011;50896;46.714;17.322;2023-04-25T08:03:38;5.30;;;1.50;;
64520;SDS011;50896;46.714;17.322;2023-04-25T08:06:10;2.30;;;1.40;;
64520;SDS011;50896;46.714;17.322;2023-04-25T08:08:47;4.35;;;1.63;;
64520;SDS011;50896;46.714;17.322;2023-04-25T08:11:17;3.75;;;1.75;;
64520;SDS011;50896;46.714;17.322;2023-04-25T08:13:44;3.38;;;1.58;;
64520;SDS011;50896;46.714;17.322;2023-04-25T08:16:11;3.30;;;1.30;;
64520;SDS011;50896;46.714;17.322;2023-04-25T08:18:38;1.85;;;1.42;;
64520;SDS011;50896;46.714;17.322;2023-04-25T08:21:05;3.30;;;1.40;;
64520;SDS011;50896;46.714;17.322;2023-04-25T08:23:33;3.42;;;1.70;;
64520;SDS011;50896;46.714;17.322;2023-04-25T08:26:03;4.07;;;1.60;;
64520;SDS011;50896;46.714;17.322;2023-04-25T08:28:33;2.95;;;1.20;;
64520;SDS011;50896;46.714;17.322;2023-04-25T08:31:01;6.38;;;1.50;;
64520;SDS011;50896;46.714;17.322;2023-04-25T08:33:34;1.98;;;1.40;;
64520;SDS011;50896;46.714;17.322;2023-04-25T08:36:13;4.05;;;1.55;;
64520;SDS011;50896;46.714;17.322;2023-04-25T08:38:57;3.25;;;1.88;;
64520;SDS011;50896;46.714;17.322;2023-04-25T08:41:25;4.78;;;1.63;;
64520;SDS011;50896;46.714;17.322;2023-04-25T08:43:53;2.70;;;1.50;;
64520;SDS011;50896;46.714;17.322;2023-04-25T08:46:23;3.45;;;1.45;;
64520;SDS011;50896;46.714;17.322;2023-04-25T08:49:08;1.63;;;1.13;;
64520;SDS011;50896;46.714;17.322;2023-04-25T08:51:36;1.60;;;1.20;;
64520;SDS011;50896;46.714;17.322;2023-04-25T08:54:20;4.05;;;1.65;;
64520;SDS011;50896;46.714;17.322;2023-04-25T08:57:04;2.45;;;1.73;;
64520;SDS011;50896;46.714;17.322;2023-04-25T08:59:32;3.80;;;1.38;;
64520;SDS011;50896;46.714;17.322;2023-04-25T09:02:00;2.00;;;1.30;;
64520;SDS011;50896;46.714;17.322;2023-04-25T09:04:32;2.03;;;1.40;;
64520;SDS011;50896;46.714;17.322;2023-04-25T09:09:26;3.10;;;1.40;;
64520;SDS011;50896;46.714;17.322;2023-04-25T09:11:53;4.22;;;1.30;;
64520;SDS011;50896;46.714;17.322;2023-04-25T09:14:23;1.65;;;1.40;;
64520;SDS011;50896;46.714;17.322;2023-04-25T09:17:10;4.40;;;1.50;;
64520;SDS011;50896;46.714;17.322;2023-04-25T09:19:46;1.23;;;1.13;;
64520;SDS011;50896;46.714;17.322;2023-04-25T09:22:21;2.72;;;1.40;;
64520;SDS011;50896;46.714;17.322;2023-04-25T09:24:49;2.30;;;1.55;;
64520;SDS011;50896;46.714;17.322;2023-04-25T09:29:58;4.03;;;1.35;;
64520;SDS011;50896;46.714;17.322;2023-04-25T09:32:33;5.95;;;1.77;;
64520;SDS011;50896;46.714;17.322;2023-04-25T09:35:01;1.60;;;1.20;;
64520;SDS011;50896;46.714;17.322;2023-04-25T09:37:29;2.80;;;1.42;;
64520;SDS011;50896;46.714;17.322;2023-04-25T09:40:15;3.05;;;1.60;;
64520;SDS011;50896;46.714;17.322;2023-04-25T09:42:54;2.28;;;1.42;;
64520;SDS011;50896;46.714;17.322;2023-04-25T09:45:22;3.15;;;1.10;;
64520;SDS011;50896;46.714;17.322;2023-04-25T09:47:49;2.75;;;1.40;;
64520;SDS011;50896;46.714;17.322;2023-04-25T09:50:22;2.58;;;1.17;;
64520;SDS011;50896;46.714;17.322;2023-04-25T09:53:03;1.50;;;1.15;;
64520;SDS011;50896;46.714;17.322;2023-04-25T09:55:52;3.33;;;1.77;;
64520;SDS011;50896;46.714;17.322;2023-04-25T09:58:20;2.22;;;1.10;;
64520;SDS011;50896;46.714;17.322;2023-04-25T10:00:47;1.17;;;0.90;;
64520;SDS011;50896;46.714;17.322;2023-04-25T10:03:26;3.92;;;1.00;;
64520;SDS011;50896;46.714;17.322;2023-04-25T10:06:09;2.35;;;1.00;;
64520;SDS011;50896;46.714;17.322;2023-04-25T10:08:40;2.13;;;1.30;;
64520;SDS011;50896;46.714;17.322;2023-04-25T10:11:10;2.13;;;0.98;;
64520;SDS011;50896;46.714;17.322;2023-04-25T10:13:40;2.70;;;1.10;;
64520;SDS011;50896;46.714;17.322;2023-04-25T10:16:08;1.85;;;1.40;;
64520;SDS011;50896;46.714;17.322;2023-04-25T10:18:35;2.03;;;1.00;;
64520;SDS011;50896;46.714;17.322;2023-04-25T10:21:04;1.85;;;1.10;;
64520;SDS011;50896;46.714;17.322;2023-04-25T10:23:32;3.58;;;1.20;;
64520;SDS011;50896;46.714;17.322;2023-04-25T10:26:03;2.28;;;1.10;;
64520;SDS011;50896;46.714;17.322;2023-04-25T10:28:30;1.65;;;0.90;;
64520;SDS011;50896;46.714;17.322;2023-04-25T10:31:26;1.45;;;1.00;;
64520;SDS011;50896;46.714;17.322;2023-04-25T10:33:53;2.50;;;1.00;;
64520;SDS011;50896;46.714;17.322;2023-04-25T10:36:21;2.42;;;1.10;;
64520;SDS011;50896;46.714;17.322;2023-04-25T10:38:49;1.52;;;0.82;;
64520;SDS011;50896;46.714;17.322;2023-04-25T10:41:18;2.35;;;1.10;;
64520;SDS011;50896;46.714;17.322;2023-04-25T10:43:47;1.45;;;0.80;;
64520;SDS011;50896;46.714;17.322;2023-04-25T10:48:59;2.17;;;1.05;;
64520;SDS011;50896;46.714;17.322;2023-04-25T10:54:09;1.88;;;1.00;;
64520;SDS011;50896;46.714;17.322;2023-04-25T10:59:08;3.63;;;1.20;;
64520;SDS011;50896;46.714;17.322;2023-04-25T11:01:43;1.42;;;0.80;;
64520;SDS011;50896;46.714;17.322;2023-04-25T11:04:24;2.15;;;1.08;;
64520;SDS011;50896;46.714;17.322;2023-04-25T11:09:34;2.25;;;0.95;;
64520;SDS011;50896;46.714;17.322;2023-04-25T11:12:02;3.25;;;0.88;;
64520;SDS011;50896;46.714;17.322;2023-04-25T11:14:29;1.13;;;0.70;;
64520;SDS011;50896;46.714;17.322;2023-04-25T11:16:57;2.45;;;1.13;;
64520;SDS011;50896;46.714;17.322;2023-04-25T11:19:26;2.67;;;0.95;;
64520;SDS011;50896;46.714;17.322;2023-04-25T11:21:57;1.60;;;0.80;;
64520;SDS011;50896;46.714;17.322;2023-04-25T11:24:30;2.35;;;0.90;;
64520;SDS011;50896;46.714;17.322;2023-04-25T11:26:58;1.48;;;0.60;;
64520;SDS011;50896;46.714;17.322;2023-04-25T11:29:29;2.55;;;1.77;;
64520;SDS011;50896;46.714;17.322;2023-04-25T11:31:57;3.25;;;1.83;;
64520;SDS011;50896;46.714;17.322;2023-04-25T11:34:25;3.25;;;1.40;;
64520;SDS011;50896;46.714;17.322;2023-04-25T11:36:52;1.70;;;1.00;;
64520;SDS011;50896;46.714;17.322;2023-04-25T11:39:20;3.58;;;0.70;;
64520;SDS011;50896;46.714;17.322;2023-04-25T11:41:47;1.10;;;0.60;;
64520;SDS011;50896;46.714;17.322;2023-04-25T11:44:17;2.58;;;0.82;;
64520;SDS011;50896;46.714;17.322;2023-04-25T11:46:45;1.90;;;0.88;;
64520;SDS011;50896;46.714;17.322;2023-04-25T11:49:16;1.75;;;0.60;;
64520;SDS011;50896;46.714;17.322;2023-04-25T11:51:46;0.45;;;0.40;;
64520;SDS011;50896;46.714;17.322;2023-04-25T11:54:14;1.45;;;0.70;;
64520;SDS011;50896;46.714;17.322;2023-04-25T11:56:45;1.85;;;0.65;;
64520;SDS011;50896;46.714;17.322;2023-04-25T11:59:12;1.75;;;0.63;;
64520;SDS011;50896;46.714;17.322;2023-04-25T12:01:41;3.92;;;0.90;;
64520;SDS011;50896;46.714;17.322;2023-04-25T12:04:15;1.45;;;0.80;;
64520;SDS011;50896;46.714;17.322;2023-04-25T12:06:48;0.98;;;0.70;;
64520;SDS011;50896;46.714;17.322;2023-04-25T12:09:30;2.05;;;1.02;;
64520;SDS011;50896;46.714;17.322;2023-04-25T12:11:59;1.42;;;0.57;;
64520;SDS011;50896;46.714;17.322;2023-04-25T12:14:31;2.22;;;0.90;;
64520;SDS011;50896;46.714;17.322;2023-04-25T12:16:59;2.33;;;1.75;;
64520;SDS011;50896;46.714;17.322;2023-04-25T12:19:34;1.98;;;1.13;;
64520;SDS011;50896;46.714;17.322;2023-04-25T12:22:03;1.48;;;0.75;;
64520;SDS011;50896;46.714;17.322;2023-04-25T12:24:45;0.98;;;0.73;;
64520;SDS011;50896;46.714;17.322;2023-04-25T12:27:13;0.80;;;0.80;;
64520;SDS011;50896;46.714;17.322;2023-04-25T12:29:52;2.20;;;0.80;;
64520;SDS011;50896;46.714;17.322;2023-04-25T12:32:21;1.05;;;0.50;;
64520;SDS011;50896;46.714;17.322;2023-04-25T12:34:48;1.17;;;0.50;;
64520;SDS011;50896;46.714;17.322;2023-04-25T12:37:15;2.63;;;0.63;;
64520;SDS011;50896;46.714;17.322;2023-04-25T12:39:42;2.10;;;0.50;;
64520;SDS011;50896;46.714;17.322;2023-04-25T12:42:09;0.98;;;0.50;;
64520;SDS011;50896;46.714;17.322;2023-04-25T12:44:38;0.50;;;0.40;;
64520;SDS011;50896;46.714;17.322;2023-04-25T12:47:06;4.63;;;0.50;;
64520;SDS011;50896;46.714;17.322;2023-04-25T12:49:33;0.95;;;0.60;;
64520;SDS011;50896;46.714;17.322;2023-04-25T12:52:00;3.47;;;0.68;;
64520;SDS011;50896;46.714;17.322;2023-04-25T12:54:27;0.50;;;0.50;;
64520;SDS011;50896;46.714;17.322;2023-04-25T12:56:53;0.57;;;0.50;;
64520;SDS011;50896;46.714;17.322;2023-04-25T12:59:21;0.88;;;0.65;;
64520;SDS011;50896;46.714;17.322;2023-04-25T13:01:48;1.60;;;0.40;;
64520;SDS011;50896;46.714;17.322;2023-04-25T13:04:15;1.88;;;0.50;;
64520;SDS011;50896;46.714;17.322;2023-04-25T13:06:43;1.50;;;0.70;;
64520;SDS011;50896;46.714;17.322;2023-04-25T13:09:09;0.70;;;0.70;;
64520;SDS011;50896;46.714;17.322;2023-04-25T13:11:39;0.60;;;0.40;;
64520;SDS011;50896;46.714;17.322;2023-04-25T13:14:07;0.60;;;0.60;;
64520;SDS011;50896;46.714;17.322;2023-04-25T13:16:34;0.90;;;0.70;;
64520;SDS011;50896;46.714;17.322;2023-04-25T13:19:01;2.53;;;0.90;;
64520;SDS011;50896;46.714;17.322;2023-04-25T13:21:29;0.95;;;0.60;;
64520;SDS011;50896;46.714;17.322;2023-04-25T13:23:57;1.35;;;0.65;;
64520;SDS011;50896;46.714;17.322;2023-04-25T13:26:24;1.52;;;0.60;;
64520;SDS011;50896;46.714;17.322;2023-04-25T13:28:51;2.47;;;1.60;;
64520;SDS011;50896;46.714;17.322;2023-04-25T13:31:18;1.70;;;0.80;;
64520;SDS011;50896;46.714;17.322;2023-04-25T13:33:44;0.55;;;0.55;;
64520;SDS011;50896;46.714;17.322;2023-04-25T13:36:11;1.52;;;0.70;;
64520;SDS011;50896;46.714;17.322;2023-04-25T13:38:38;0.63;;;0.63;;
64520;SDS011;50896;46.714;17.322;2023-04-25T13:41:05;1.42;;;0.60;;
64520;SDS011;50896;46.714;17.322;2023-04-25T13:43:33;3.58;;;0.75;;
64520;SDS011;50896;46.714;17.322;2023-04-25T13:46:01;0.65;;;0.50;;
64520;SDS011;50896;46.714;17.322;2023-04-25T13:48:28;0.82;;;0.70;;
64520;SDS011;50896;46.714;17.322;2023-04-25T13:50:54;1.33;;;0.70;;
64520;SDS011;50896;46.714;17.322;2023-04-25T13:53:21;1.80;;;0.60;;
64520;SDS011;50896;46.714;17.322;2023-04-25T13:55:48;1.75;;;0.73;;
64520;SDS011;50896;46.714;17.322;2023-04-25T13:58:16;0.80;;;0.52;;
64520;SDS011;50896;46.714;17.322;2023-04-25T14:00:43;0.63;;;0.63;;
64520;SDS011;50896;46.714;17.322;2023-04-25T14:03:12;1.25;;;0.65;;
64520;SDS011;50896;46.714;17.322;2023-04-25T14:05:39;4.22;;;1.13;;
64520;SDS011;50896;46.714;17.322;2023-04-25T14:08:07;2.17;;;0.80;;
64520;SDS011;50896;46.714;17.322;2023-04-25T14:10:35;2.80;;;0.90;;
64520;SDS011;50896;46.714;17.322;2023-04-25T14:13:03;8.32;;;2.13;;
64520;SDS011;50896;46.714;17.322;2023-04-25T14:15:31;3.65;;;1.17;;
64520;SDS011;50896;46.714;17.322;2023-04-25T14:17:58;1.10;;;0.60;;
64520;SDS011;50896;46.714;17.322;2023-04-25T14:20:26;1.42;;;0.70;;
64520;SDS011;50896;46.714;17.322;2023-04-25T14:22:53;1.38;;;0.65;;
64520;SDS011;50896;46.714;17.322;2023-04-25T14:25:22;0.90;;;0.70;;
64520;SDS011;50896;46.714;17.322;2023-04-25T14:27:49;0.85;;;0.50;;
64520;SDS011;50896;46.714;17.322;2023-04-25T14:30:17;0.70;;;0.60;;
64520;SDS011;50896;46.714;17.322;2023-04-25T14:32:45;2.92;;;0.77;;
64520;SDS011;50896;46.714;17.322;2023-04-25T14:35:12;2.13;;;1.02;;
64520;SDS011;50896;46.714;17.322;2023-04-25T14:37:39;2.45;;;1.00;;
64520;SDS011;50896;46.714;17.322;2023-04-25T14:40:06;21.73;;;4.45;;
64520;SDS011;50896;46.714;17.322;2023-04-25T14:42:37;7.15;;;1.67;;
64520;SDS011;50896;46.714;17.322;2023-04-25T14:45:04;2.92;;;0.90;;
64520;SDS011;50896;46.714;17.322;2023-04-25T14:47:34;1.67;;;0.90;;
64520;SDS011;50896;46.714;17.322;2023-04-25T14:50:02;1.70;;;0.70;;
64520;SDS011;50896;46.714;17.322;2023-04-25T14:52:29;2.30;;;0.80;;
64520;SDS011;50896;46.714;17.322;2023-04-25T14:54:57;0.68;;;0.60;;
64520;SDS011;50896;46.714;17.322;2023-04-25T14:57:23;2.08;;;0.90;;
64520;SDS011;50896;46.714;17.322;2023-04-25T14:59:50;1.15;;;1.05;;
64520;SDS011;50896;46.714;17.322;2023-04-25T15:02:17;1.67;;;0.75;;
64520;SDS011;50896;46.714;17.322;2023-04-25T15:04:44;1.42;;;0.70;;
64520;SDS011;50896;46.714;17.322;2023-04-25T15:07:11;2.50;;;0.93;;
64520;SDS011;50896;46.714;17.322;2023-04-25T15:09:38;3.20;;;2.80;;
64520;SDS011;50896;46.714;17.322;2023-04-25T15:12:04;3.45;;;1.08;;
64520;SDS011;50896;46.714;17.322;2023-04-25T15:14:31;2.65;;;1.10;;